Home > Products > Valid Products > TAF

000
FTUS46 KEKA 242340
TAFUKI
TAF
KUKI 242340Z 2500/2524 13014G20KT P6SM FEW050
     FM250300 16012G18KT P6SM BKN050
     FM251000 15011KT 6SM -RA BKN015 OVC030
     FM251600 16010KT P6SM -RA SCT015 OVC030
     FM252000 17015KT P6SM -SHRA OVC025 PROB30 2520/2523 P6SM -TSRA
      BKN025CB=



000
FTUS46 KEKA 242340
TAFCEC
TAF
KCEC 242340Z 2500/2524 16012KT P6SM BKN060
     FM250400 15015G20KT P6SM SCT025 OVC050 WS010/18030KT
     FM250800 14018G25KT 5SM -RA BR BKN025 OVC035 WS010/18030KT
     FM251600 16030KT 6SM -RA SCT025 OVC050
     FM252000 17027KT P6SM -SHRA OVC025 PROB30 2520/2523 P6SM -TSRA
      BKN025CB=



000
FTUS46 KEKA 242340
TAFACV
TAF
KACV 242340Z 2500/2524 20013G18KT P6SM FEW050
     FM250600 16015KT P6SM BKN045 OVC080 WS010/16030KT
     FM250900 16015G22KT 5SM -RA BR BKN025 OVC035 WS010/16030KT
     FM251600 16018G25KT 6SM -RA SCT025 OVC050
     FM252000 17015KT P6SM -SHRA OVC025 PROB30 2520/2523 P6SM -TSRA
      BKN025CB=



000
FTUS46 KEKA 241917 AAA
TAFUKI
TAF AMD
KUKI 241917Z 2419/2518 15010G15KT P6SM SCT090 SCT250
     FM250300 16006KT P6SM OVC250
     FM250900 15008KT 5SM -RA OVC015=



000
FTUS46 KEKA 241741
TAFCEC
TAF
KCEC 241741Z 2418/2518 11009KT P6SM -RA SCT007 SCT020 OVC035
     FM242000 16012KT P6SM SCT020 SCT035 BKN060
      TEMPO 2420/2424 16013G19KT P6SM BKN035
     FM250600 15015KT P6SM -RA SCT025 OVC050 WS010/18030KT
     FM250800 14015G20KT 4SM -RA BR BKN025 OVC035 WS010/18030KT=



000
FTUS46 KEKA 241741
TAFACV
TAF
KACV 241741Z 2418/2518 15009KT P6SM SCT029 BKN050 OVC090
     FM242000 16012G18KT P6SM SCT029 BKN050 BKN090
     FM250600 13015KT P6SM -RA BKN045 OVC080 WS010/16030KT
     FM251100 14015G22KT 6SM -RA BR BKN025 OVC035 WS010/16030KT=



000
FTUS46 KEKA 241741
TAFUKI
TAF
KUKI 241741Z 2418/2518 15009KT P6SM FEW007 SCT090 SCT250
     FM242100 15012KT P6SM SCT090 SCT250
     FM250300 16006KT P6SM OVC250
     FM250900 15008KT 5SM -RA OVC015=



000
FTUS46 KEKA 241711 AAB
TAFUKI
TAF AMD
KUKI 241711Z 2417/2512 15009KT P6SM OVC005
     FM241800 15009KT P6SM SCT005 SCT250
     FM242000 15011KT P6SM FEW250
     FM250300 16006KT P6SM OVC250
     FM250900 15008KT P6SM -RA OVC015=



000
FTUS46 KEKA 241614 AAA
TAFUKI
TAF AMD
KUKI 241614Z 2416/2512 17005KT 6SM BR OVC004
     FM241700 15019KT P6SM SCT004 SCT250
     FM242000 15011KT P6SM FEW250
     FM250300 16006KT P6SM OVC250
     FM250900 15008KT P6SM -RA OVC015=



000
FTUS46 KEKA 241608 AAB
TAFACV
TAF AMD
KACV 241608Z 2416/2512 14009KT 6SM -SHRA SCT005 SCT015 BKN040
     FM241700 14010KT P6SM FEW035 BKN050
     FM250600 13015KT P6SM -RA BKN045 OVC080 WS010/16030KT=



000
FTUS46 KEKA 241606 CCA
TAFCEC
TAF COR
KCEC 241606Z 2416/2512 09007KT 6SM -SHRA SCT007 SCT020 OVC035
      TEMPO 2416/2419 3SM -RA BR SCT007 OVC020
     FM241900 17007KT P6SM SCT010 BKN030
     FM242000 16010KT P6SM BKN150
     FM250600 16015KT P6SM -RA OVC050 WS010/18030KT=



000
FTUS46 KEKA 241534 AAA
TAFCEC
TAF AMD
KCEC 241534Z 2416/2512 09007KT 3SM -SHRA SCT007 BKN020 OVC050
     FM241900 17007KT P6SM SCT010 BKN030
     FM242000 16010KT P6SM BKN150
     FM250600 16015KT P6SM -RA OVC050 WS010/18030KT=



000
FTUS46 KEKA 241427 AAA
TAFACV
TAF AMD
KACV 241427Z 2414/2512 14005KT 3SM -SHRA SCT005 OVC015
     FM241700 14010KT P6SM FEW035 BKN050
     FM250600 13015KT P6SM -RA BKN045 OVC080 WS010/16030KT=



000
FTUS46 KEKA 241149 CCA
TAFACV
TAF COR
KACV 241149Z 2412/2512 09003KT 2SM -RA SCT010 OVC040
     FM241400 10003KT 2SM -RA SCT005 OVC015
     FM241700 14010KT P6SM FEW035 BKN050
     FM250600 13015KT P6SM -RA BKN045 OVC080 WS010/16030KT=



000
FTUS46 KEKA 241148
TAFACV
TAF
KACV 241148Z 2412/2512 09003KT 3SM -RA SCT010 OVC050
     FM241400 10003KT 2SM -RA SCT005 OVC015
     FM241700 14010KT P6SM FEW035 BKN050
     FM250600 13015KT P6SM -RA BKN045 OVC080 WS010/16030KT=



000
FTUS46 KEKA 241148
TAFUKI
TAF
KUKI 241148Z 2412/2512 00000KT 1SM BR OVC002
     FM241600 15004KT P6SM FEW002 SCT010
     FM242000 15011KT P6SM FEW250
     FM250300 16006KT P6SM OVC250
     FM250900 15008KT P6SM -RA OVC015=



000
FTUS46 KEKA 241148
TAFCEC
TAF
KCEC 241148Z 2412/2512 07004KT P6SM -RA FEW005 OVC080
     FM241400 09003KT 3SM -RA BKN007 OVC050
     FM241800 17007KT P6SM SCT010 BKN030
     FM242000 16010KT P6SM BKN150
     FM250600 16015KT P6SM -RA OVC050 WS010/18030KT=



000
FTUS46 KEKA 241041 AAB
TAFUKI
TAF AMD
KUKI 241041Z 2411/2506 00000KT 1SM BR BKN002 OVC010
     FM241600 15007KT P6SM SCT200
     FM242000 15011KT P6SM BKN250
     FM250300 16006KT P6SM OVC250=



000
FTUS46 KEKA 240727 AAA
TAFUKI
TAF AMD
KUKI 240727Z 2407/2506 00000KT P6SM BKN002
     FM241000 00000KT 6SM BR BKN002 OVC010
     FM241500 15007KT P6SM SCT200
     FM242000 15011KT P6SM BKN250
     FM250300 16006KT P6SM OVC250=



000
FTUS46 KEKA 240540
TAFACV
TAF
KACV 240540Z 2406/2506 16004KT P6SM -SHRA FEW035 OVC100
     FM240800 13003KT 6SM -RA FEW015 BKN030 OVC050
     FM241500 15006KT 3SM -RA OVC015
     FM242000 18011KT 6SM BR SCT035 BKN050
     FM242300 16015KT P6SM SCT015 BKN035=



000
FTUS46 KEKA 240540
TAFUKI
TAF
KUKI 240540Z 2406/2506 00000KT P6SM OVC060
     FM241000 00000KT 6SM BR OVC015
     FM241500 15007KT P6SM SCT200
     FM242000 15011KT P6SM BKN250
     FM250300 16006KT P6SM OVC250=



000
FTUS46 KEKA 240540
TAFCEC
TAF
KCEC 240540Z 2406/2506 13005KT P6SM -SHRA FEW019 OVC100
     FM241000 15005KT 6SM -RA BR SCT012 BKN020
     FM241600 12009KT 3SM -RA OVC015
     FM242200 17015KT P6SM SCT015 BKN025
     FM250000 17011KT P6SM OVC050=



000
FTUS46 KEKA 240207 AAA
TAFUKI
TAF AMD
KUKI 240207Z 2402/2424 20005KT P6SM SCT020 OVC050
     FM240600 00000KT 5SM -SHRA BR SCT015 BKN040
     FM241200 00000KT 6SM BR OVC015
     FM241500 15007KT P6SM SCT200=



000
FTUS46 KEKA 240207 AAA
TAFUKI
TAF AMD
KUKI 240207Z 2402/2424 20005KT P6SM SCT020 OVC050
     FM240600 00000KT 5SM -SHRA BR SCT015 BKN040
     FM241200 00000KT 6SM BR OVC015
     FM241500 15007KT P6SM SCT200=



000
FTUS46 KEKA 232344
TAFUKI
TAF
KUKI 232344Z 2400/2424 20005KT 2SM RA BR BKN020 OVC030
     FM240300 16002KT 6SM -RA BR SCT020 BKN035 OVC100
     FM240600 00000KT 5SM -SHRA BR SCT015 BKN040
     FM241200 00000KT 6SM BR OVC015
     FM241500 15007KT P6SM SCT200=



000
FTUS46 KEKA 232344
TAFACV
TAF
KACV 232344Z 2400/2424 10003KT P6SM FEW007 OVC100
     FM240500 00000KT P6SM -SHRA BKN030 OVC050
     FM240600 09003KT 6SM -RA BR SCT015 OVC025
     FM241500 15006KT 3SM -RA OVC015
     FM242000 18011KT 6SM BR FEW015 SCT035 BKN050=



000
FTUS46 KEKA 232344
TAFCEC
TAF
KCEC 232344Z 2400/2424 17006KT P6SM SCT012 OVC120
     FM240400 14005KT P6SM -SHRA SCT012 BKN030
     FM240700 15005KT 6SM -RA BR SCT012 BKN025
     FM241600 12009KT 3SM -RA OVC015
     FM242200 17015KT P6SM SCT015 OVC025=



000
FTUS46 KEKA 231736
TAFUKI
TAF
KUKI 231736Z 2318/2418 00000KT P6SM -RA FEW040 BKN045 OVC060
     FM232000 13004KT 5SM -RA BR OVC020
     FM240200 00000KT P6SM VCSH SCT020 BKN035 OVC100
     FM240600 00000KT 5SM BR VCFG SCT002
     FM241700 15007KT P6SM SCT200=



000
FTUS46 KEKA 231736
TAFCEC
TAF
KCEC 231736Z 2318/2418 12005KT P6SM VCSH FEW008 BKN028 OVC035
     FM232200 17006KT 5SM -SHRA OVC015
     FM240600 15005KT 6SM BR SCT015 BKN025
     FM241600 12009KT 6SM -RA OVC015=



000
FTUS46 KEKA 231736
TAFACV
TAF
KACV 231736Z 2318/2418 19012KT 3SM -RA BR BKN007 OVC011
     FM231900 17006KT 6SM -SHRA OVC015
     FM240000 VRB04KT 6SM -RA SCT007 OVC012
     FM240800 09004KT P6SM -SHRA OVC020=



000
FTUS46 KEKA 231637 AAA
TAFCEC
TAF AMD
KCEC 231637Z 2317/2412 17005KT 1SM RA BR SCT009 OVC015
     FM231800 28010KT 6SM -SHRA SCT009 BKN015 OVC040
     FM232200 17006KT 5SM BR VCSH BKN007 OVC015=



000
FTUS46 KEKA 231637 AAA
TAFCEC
TAF AMD
KCEC 231637Z 2317/2412 17005KT 1SM RA BR SCT009 OVC015
     FM231800 28010KT 6SM -SHRA SCT009 BKN015 OVC040
     FM232200 17006KT 5SM BR VCSH BKN007 OVC015=



000
FTUS46 KEKA 231145
TAFCEC
TAF
KCEC 231145Z 2312/2412 17014G21KT P6SM -RA BKN005 BKN015 OVC030
     FM231400 17009KT 6SM BR VCSH SCT007 BKN015 BKN025=



000
FTUS46 KEKA 231145
TAFUKI
TAF
KUKI 231145Z 2312/2412 15003KT 6SM -RA BKN025 BKN040 OVC080
     FM232200 13004KT 5SM -RA BR OVC020
     FM240200 00000KT P6SM SCT020 BKN035 OVC100=



000
FTUS46 KEKA 231145
TAFACV
TAF
KACV 231145Z 2312/2412 12004KT 6SM -SHRA SCT025 OVC035
     FM231500 16009KT 6SM -SHRA BKN007 BKN015 OVC035
     FM240000 VRB04KT 6SM BR SCT007 BKN015=



000
FTUS46 KEKA 230544
TAFACV
TAF
KACV 230544Z 2306/2406 14012G20KT P6SM -RA OVC100
     FM230700 15011KT 5SM -RA BR SCT025 OVC050
     FM231500 16009KT 4SM -RA SCT007 BKN025 OVC050
     FM232000 22006KT 6SM BR SCT007 OVC025=



000
FTUS46 KEKA 230544
TAFUKI
TAF
KUKI 230544Z 2306/2406 00000KT P6SM VCSH SCT060 OVC180
     FM231200 16003KT P6SM -RA BKN040 OVC080
     FM231600 17004KT 6SM -RA BR SCT025 OVC040
     FM232200 13004KT 5SM -RA BR OVC040=



000
FTUS46 KEKA 230544
TAFCEC
TAF
KCEC 230544Z 2306/2406 17018G30KT P6SM BKN025 OVC060
      TEMPO 2306/2310 5SM -RA SCT019 BKN025
     FM231200 17015G20KT P6SM VCSH SCT025 BKN035
     FM231600 18009KT 5SM -RA BR SCT015 BKN025
     FM232100 18006KT P6SM BKN030 OVC050=



000
FTUS46 KEKA 230246 AAA
TAFCEC
TAF AMD
KCEC 230246Z 2303/2324 17018G30KT 5SM -RA BR BKN025 OVC035
      TEMPO 2303/2305 2SM RA BR FEW008 BKN015
     FM231000 17015G20KT 3SM RA BR SCT007 OVC015
     FM232000 18010KT P6SM -RA SCT015 BKN025 OVC050=



000
FTUS46 KEKA 230239 AAA
TAFACV
TAF AMD
KACV 230239Z 2303/2324 15007KT 6SM -RA BR SCT029 OVC045
     FM230400 16012G20KT 5SM -RA OVC025
     FM231500 17008KT 3SM -RA SCT007 OVC025=



000
FTUS46 KEKA 222344 CCA
TAFACV
TAF COR
KACV 222344Z 2300/2324 17014G23KT P6SM SCT029 OVC070
      TEMPO 2300/2302 6SM -RA BR FEW020 BKN029
     FM230200 17013G20KT 6SM -RA BR BKN029 OVC050
     FM230700 16012G20KT 5SM -RA OVC025
     FM231500 17008KT 3SM -RA SCT007 OVC025=



000
FTUS46 KEKA 222341
TAFCEC
TAF
KCEC 222341Z 2300/2324 16020G30KT 6SM -RA BR BKN035 OVC040
      TEMPO 2300/2303 16024G35KT 4SM RA BR SCT015 BKN020 OVC040
     FM230300 17018G30KT 5SM -RA BR BKN015 OVC040
     FM231000 17015G20KT 3SM RA BR SCT007 OVC015
     FM232000 18010KT P6SM -RA SCT015 BKN025 OVC050=



000
FTUS46 KEKA 222341
TAFACV
TAF
KACV 222341Z 2300/2324 17014G23KT P6SM -RA SCT029 OVC070
      TEMPO 2300/2302 6SM -RA BR FEW020 BKN029
     FM230200 17013G20KT 6SM -RA BR BKN029 OVC050
     FM230700 16012G20KT 5SM -RA OVC025
     FM231500 17008KT 3SM -RA SCT007 OVC025=



000
FTUS46 KEKA 222341
TAFUKI
TAF
KUKI 222341Z 2300/2324 VRB03KT P6SM SCT045
     FM230100 VRB05KT P6SM SCT060 OVC180
     FM230900 VRB03KT P6SM BKN060 BKN100 OVC180 PROB30 2309/2313
      P6SM -RA BKN060
     FM231300 15005KT P6SM -RA BKN040 OVC080=



000
FTUS46 KEKA 222220 AAA
TAFACV
TAF AMD
KACV 222220Z 2222/2318 17014G23KT P6SM -RA SCT029 BKN050 OVC080
     FM230200 17013G20KT 6SM -RA BR SCT029 OVC050
      TEMPO 2302/2306 5SM -RA BR BKN029
     FM230600 16012G20KT 5SM -RA OVC025=



000
FTUS46 KEKA 222037 AAA
TAFCEC
TAF AMD
KCEC 222037Z 2221/2318 16015G26KT P6SM -RA SCT015 BKN035 OVC050
      TEMPO 2223/2302 16021G35KT 6SM -RA BR SCT015 BKN020 OVC050
     FM230200 17018G30KT 4SM -RA BR BKN015 OVC300=



000
FTUS46 KEKA 222037 AAA
TAFCEC
TAF AMD
KCEC 222037Z 2221/2318 16015G26KT P6SM -RA SCT015 BKN035 OVC050
      TEMPO 2223/2302 16021G35KT 6SM -RA BR SCT015 BKN020 OVC050
     FM230200 17018G30KT 4SM -RA BR BKN015 OVC300=



000
FTUS46 KEKA 221804 CCA
TAFCEC
TAF COR
KCEC 221804Z 2218/2318 16015G25KT 6SM -RA BR SCT010 BKN035 OVC050
      TEMPO 2219/2223 16020G35KT 3SM -RA BR SCT010 OVC025
     FM222300 16020G32KT 5SM -RA BR SCT010 BKN020 OVC035
      TEMPO 2223/2302 16021G35KT 2SM RA BR BKN010 OVC020
     FM230200 17018G30KT 3SM -RA BR OVC010=



000
FTUS46 KEKA 221804 CCA
TAFCEC
TAF COR
KCEC 221804Z 2218/2318 16015G25KT 6SM -RA BR SCT010 BKN035 OVC050
      TEMPO 2219/2223 16020G35KT 3SM -RA BR SCT010 OVC025
     FM222300 16020G32KT 5SM -RA BR SCT010 BKN020 OVC035
      TEMPO 2223/2302 16021G35KT 2SM RA BR BKN010 OVC020
     FM230200 17018G30KT 3SM -RA BR OVC010=



000
FTUS46 KEKA 221741
TAFUKI
TAF
KUKI 221741Z 2218/2318 16007KT P6SM SCT080 BKN200
     FM230100 VRB05KT P6SM SCT060 OVC180
     FM230900 VRB03KT P6SM BKN060 BKN100 OVC180 PROB30 2309/2313
      P6SM -RA BKN060
     FM231300 15005KT P6SM -RA BKN040 OVC080=



000
FTUS46 KEKA 221741
TAFACV
TAF
KACV 221741Z 2218/2318 17009KT P6SM VCSH SCT030 BKN050
     FM222200 17012KT P6SM -RA SCT027 OVC050
      TEMPO 2222/2301 6SM -RA BR BKN027 OVC040
     FM230100 15012KT 5SM -RA BR BKN025 OVC030
     FM230500 16012G20KT 5SM -RA OVC025=



000
FTUS46 KEKA 221741
TAFCEC
TAF
KCEC 221741Z 2218/2318 16015G25KT 6SM -RA BR SCT010 BKN030 OVC050
      TEMPO 2219/2223 16020G35KT 3SM -RA BR SCT010 OVC025
     FM222300 16020G32KT 5SM -RA BR SCT010 BKN020 OVC035
      TEMPO 2223/2302 16021G35KT 2SM RA BR BKN010 OVC020
     FM230200 17018G30KT 3SM -RA BR OVC010=



000
FTUS46 KEKA 221741
TAFUKI
TAF
KUKI 221741Z 2218/2318 16007KT P6SM SCT080 BKN200
     FM230100 VRB05KT P6SM SCT060 OVC180
     FM230900 VRB03KT P6SM BKN060 BKN100 OVC180 PROB30 2309/2313
      P6SM -RA BKN060
     FM231300 15005KT P6SM -RA BKN040 OVC080=



000
FTUS46 KEKA 221741
TAFCEC
TAF
KCEC 221741Z 2218/2318 16015G25KT 6SM -RA BR SCT010 BKN030 OVC050
      TEMPO 2219/2223 16020G35KT 3SM -RA BR SCT010 OVC025
     FM222300 16020G32KT 5SM -RA BR SCT010 BKN020 OVC035
      TEMPO 2223/2302 16021G35KT 2SM RA BR BKN010 OVC020
     FM230200 17018G30KT 3SM -RA BR OVC010=



000
FTUS46 KEKA 221741
TAFACV
TAF
KACV 221741Z 2218/2318 17009KT P6SM VCSH SCT030 BKN050
     FM222200 17012KT P6SM -RA SCT027 OVC050
      TEMPO 2222/2301 6SM -RA BR BKN027 OVC040
     FM230100 15012KT 5SM -RA BR BKN025 OVC030
     FM230500 16012G20KT 5SM -RA OVC025=



000
FTUS46 KEKA 221648 AAB
TAFCEC
TAF AMD
KCEC 221648Z 2217/2312 16018G27KT P6SM SCT025 BKN035 OVC050
      TEMPO 2217/2221 16021G32KT 6SM -RA BKN025 OVC035
     FM222100 16021G32KT 6SM -RA BR SCT010 BKN020 OVC035
      TEMPO 2221/2301 4SM -RA BR SCT020 OVC030
     FM230100 17018G25KT 3SM -RA BR OVC010=



000
FTUS46 KEKA 221648 AAB
TAFCEC
TAF AMD
KCEC 221648Z 2217/2312 16018G27KT P6SM SCT025 BKN035 OVC050
      TEMPO 2217/2221 16021G32KT 6SM -RA BKN025 OVC035
     FM222100 16021G32KT 6SM -RA BR SCT010 BKN020 OVC035
      TEMPO 2221/2301 4SM -RA BR SCT020 OVC030
     FM230100 17018G25KT 3SM -RA BR OVC010=



000
FTUS46 KEKA 221606 AAA
TAFACV
TAF AMD
KACV 221606Z 2216/2312 13008KT P6SM FEW050 OVC060
     FM222000 16012KT P6SM FEW025 OVC050
      TEMPO 2220/2224 -RA OVC025
     FM230000 15012KT P6SM -RA BKN025 OVC030
     FM230500 16012G20KT 5SM -RA OVC025=



000
FTUS46 KEKA 221606 AAA
TAFACV
TAF AMD
KACV 221606Z 2216/2312 13008KT P6SM FEW050 OVC060
     FM222000 16012KT P6SM FEW025 OVC050
      TEMPO 2220/2224 -RA OVC025
     FM230000 15012KT P6SM -RA BKN025 OVC030
     FM230500 16012G20KT 5SM -RA OVC025=



000
FTUS46 KEKA 221529 CCA
TAFCEC
TAF COR
KCEC 221529Z 2215/2312 16018G27KT P6SM SCT025 BKN035 OVC050
      TEMPO 2216/2219 -RA BKN025
     FM230100 17018G25KT 3SM -RA BR OVC010=



000
FTUS46 KEKA 221528 AAA
TAFCEC
TAF AMD
KCEC 221528Z 2215/2312 16018G27KT P6SM SCT025 BKN035 OVC050
      TEMPO 2215/2219 -RA BKN025
     FM230100 17018G25KT 3SM -RA BR OVC010=



000
FTUS46 KEKA 221139
TAFUKI
TAF
KUKI 221139Z 2212/2312 00000KT P6SM SCT200
     FM222000 VRB04KT P6SM OVC150=



000
FTUS46 KEKA 221139
TAFCEC
TAF
KCEC 221139Z 2212/2312 16015G25KT P6SM SCT025 BKN035 OVC050
      TEMPO 2212/2214 -RA BKN025
     FM221400 16019G27KT 4SM -RA BR OVC025
     FM230100 17018G25KT 3SM -RA BR OVC010=



000
FTUS46 KEKA 221139
TAFACV
TAF
KACV 221139Z 2212/2312 13007KT P6SM FEW035 OVC060
     FM221500 16012KT P6SM FEW025 OVC050
      TEMPO 2220/2224 -RA OVC025
     FM230000 15012KT P6SM -RA BKN025 OVC050
     FM230500 16012G20KT 5SM -RA OVC025=



000
FTUS46 KEKA 220541
TAFUKI
TAF
KUKI 220541Z 2206/2306 00000KT P6SM SCT200
     FM222000 VRB04KT P6SM OVC150=



000
FTUS46 KEKA 220541
TAFACV
TAF
KACV 220541Z 2206/2306 15005KT P6SM FEW050 OVC100
     FM221700 16009KT P6SM FEW035 OVC050
      TEMPO 2221/2224 -RA OVC035
     FM230000 15008KT P6SM -RA BKN035 OVC050
     FM230500 16010G16KT 5SM -RA OVC025=



000
FTUS46 KEKA 220541
TAFCEC
TAF
KCEC 220541Z 2206/2306 18012KT P6SM OVC150
     FM220900 16015G22KT P6SM BKN035 OVC050
      TEMPO 2210/2213 -RA OVC035
     FM221300 16018G27KT 4SM -RA BR OVC025
     FM221800 17019G27KT 3SM RA BR OVC020
     FM230100 17018G25KT 3SM -RA BR OVC010=



000
FTUS46 KEKA 220541
TAFCEC
TAF
KCEC 220541Z 2206/2306 18012KT P6SM OVC150
     FM220900 16015G22KT P6SM BKN035 OVC050
      TEMPO 2210/2213 -RA OVC035
     FM221300 16018G27KT 4SM -RA BR OVC025
     FM221800 17019G27KT 3SM RA BR OVC020
     FM230100 17018G25KT 3SM -RA BR OVC010=



000
FTUS46 KEKA 220541
TAFACV
TAF
KACV 220541Z 2206/2306 15005KT P6SM FEW050 OVC100
     FM221700 16009KT P6SM FEW035 OVC050
      TEMPO 2221/2224 -RA OVC035
     FM230000 15008KT P6SM -RA BKN035 OVC050
     FM230500 16010G16KT 5SM -RA OVC025=



000
FTUS46 KEKA 220541
TAFUKI
TAF
KUKI 220541Z 2206/2306 00000KT P6SM SCT200
     FM222000 VRB04KT P6SM OVC150=



    US Dept of Commerce
    National Oceanic and Atmospheric Administration
    National Weather Service
    1325 East West Highway
    Silver Spring, MD 20910
    Page Author: NWS Internet Services Team
Disclaimer
Information Quality
Credits
Glossary
Privacy Policy
Freedom of Information Act (FOIA)
About Us
Career Opportunities